sensor_id;sensor_type;location;lat;lon;timestamp;P1;durP1;ratioP1;P2;durP2;ratioP2
15708;SDS011;7954;51.914;8.420;2022-10-23T00:01:19;2.40;;;2.00;;
15708;SDS011;7954;51.914;8.420;2022-10-23T00:03:49;2.67;;;2.37;;
15708;SDS011;7954;51.914;8.420;2022-10-23T00:06:18;2.67;;;2.37;;
15708;SDS011;7954;51.914;8.420;2022-10-23T00:08:47;3.20;;;2.30;;
15708;SDS011;7954;51.914;8.420;2022-10-23T00:11:17;2.67;;;2.30;;
15708;SDS011;7954;51.914;8.420;2022-10-23T00:13:47;2.57;;;2.37;;
15708;SDS011;7954;51.914;8.420;2022-10-23T00:16:18;3.63;;;2.27;;
15708;SDS011;7954;51.914;8.420;2022-10-23T00:18:46;2.60;;;2.40;;
15708;SDS011;7954;51.914;8.420;2022-10-23T00:21:17;3.13;;;2.00;;
15708;SDS011;7954;51.914;8.420;2022-10-23T00:23:46;2.47;;;2.00;;
15708;SDS011;7954;51.914;8.420;2022-10-23T00:26:14;3.70;;;2.20;;
15708;SDS011;7954;51.914;8.420;2022-10-23T00:28:43;2.97;;;2.50;;
15708;SDS011;7954;51.914;8.420;2022-10-23T00:31:12;2.30;;;2.10;;
15708;SDS011;7954;51.914;8.420;2022-10-23T00:33:42;3.03;;;2.33;;
15708;SDS011;7954;51.914;8.420;2022-10-23T00:36:11;2.90;;;2.57;;
15708;SDS011;7954;51.914;8.420;2022-10-23T00:38:40;2.67;;;2.03;;
15708;SDS011;7954;51.914;8.420;2022-10-23T00:41:10;2.60;;;2.40;;
15708;SDS011;7954;51.914;8.420;2022-10-23T00:43:55;2.53;;;2.17;;
15708;SDS011;7954;51.914;8.420;2022-10-23T00:46:26;3.60;;;2.10;;
15708;SDS011;7954;51.914;8.420;2022-10-23T00:48:56;2.63;;;2.07;;
15708;SDS011;7954;51.914;8.420;2022-10-23T00:51:25;3.70;;;2.30;;
15708;SDS011;7954;51.914;8.420;2022-10-23T00:53:58;2.20;;;2.00;;
15708;SDS011;7954;51.914;8.420;2022-10-23T00:56:49;2.33;;;2.00;;
15708;SDS011;7954;51.914;8.420;2022-10-23T00:59:20;3.20;;;2.10;;
15708;SDS011;7954;51.914;8.420;2022-10-23T01:01:49;2.40;;;2.20;;
15708;SDS011;7954;51.914;8.420;2022-10-23T01:04:20;2.77;;;2.20;;
15708;SDS011;7954;51.914;8.420;2022-10-23T01:06:51;2.57;;;2.33;;
15708;SDS011;7954;51.914;8.420;2022-10-23T01:09:28;4.53;;;1.87;;
15708;SDS011;7954;51.914;8.420;2022-10-23T01:12:01;3.23;;;2.13;;
15708;SDS011;7954;51.914;8.420;2022-10-23T01:14:38;2.13;;;1.93;;
15708;SDS011;7954;51.914;8.420;2022-10-23T01:17:14;2.13;;;1.93;;
15708;SDS011;7954;51.914;8.420;2022-10-23T01:19:55;2.50;;;2.30;;
15708;SDS011;7954;51.914;8.420;2022-10-23T01:22:41;2.70;;;1.90;;
15708;SDS011;7954;51.914;8.420;2022-10-23T01:25:22;3.70;;;1.50;;
15708;SDS011;7954;51.914;8.420;2022-10-23T01:28:01;5.30;;;2.30;;
15708;SDS011;7954;51.914;8.420;2022-10-23T01:30:31;2.40;;;2.00;;
15708;SDS011;7954;51.914;8.420;2022-10-23T01:33:03;2.30;;;1.80;;
15708;SDS011;7954;51.914;8.420;2022-10-23T01:35:35;2.67;;;1.90;;
15708;SDS011;7954;51.914;8.420;2022-10-23T01:38:08;3.17;;;1.80;;
15708;SDS011;7954;51.914;8.420;2022-10-23T01:40:41;2.17;;;1.90;;
15708;SDS011;7954;51.914;8.420;2022-10-23T01:43:16;2.20;;;2.00;;
15708;SDS011;7954;51.914;8.420;2022-10-23T01:45:47;2.23;;;1.90;;
15708;SDS011;7954;51.914;8.420;2022-10-23T01:48:18;4.50;;;2.33;;
15708;SDS011;7954;51.914;8.420;2022-10-23T01:50:58;1.90;;;1.80;;
15708;SDS011;7954;51.914;8.420;2022-10-23T01:53:28;2.77;;;2.00;;
15708;SDS011;7954;51.914;8.420;2022-10-23T01:56:00;2.20;;;2.00;;
15708;SDS011;7954;51.914;8.420;2022-10-23T01:58:32;2.30;;;2.10;;
15708;SDS011;7954;51.914;8.420;2022-10-23T02:01:03;1.70;;;1.50;;
15708;SDS011;7954;51.914;8.420;2022-10-23T02:03:34;2.00;;;1.70;;
15708;SDS011;7954;51.914;8.420;2022-10-23T02:06:08;2.70;;;1.80;;
15708;SDS011;7954;51.914;8.420;2022-10-23T02:08:36;2.43;;;1.77;;
15708;SDS011;7954;51.914;8.420;2022-10-23T02:11:06;2.37;;;1.57;;
15708;SDS011;7954;51.914;8.420;2022-10-23T02:13:41;3.30;;;1.63;;
15708;SDS011;7954;51.914;8.420;2022-10-23T02:16:14;2.27;;;1.60;;
15708;SDS011;7954;51.914;8.420;2022-10-23T02:18:50;2.67;;;1.63;;
15708;SDS011;7954;51.914;8.420;2022-10-23T02:21:24;1.90;;;1.70;;
15708;SDS011;7954;51.914;8.420;2022-10-23T02:23:56;2.47;;;1.90;;
15708;SDS011;7954;51.914;8.420;2022-10-23T02:26:29;3.60;;;1.70;;
15708;SDS011;7954;51.914;8.420;2022-10-23T02:29:03;3.03;;;1.90;;
15708;SDS011;7954;51.914;8.420;2022-10-23T02:31:36;2.13;;;1.60;;
15708;SDS011;7954;51.914;8.420;2022-10-23T02:34:04;2.13;;;1.70;;
15708;SDS011;7954;51.914;8.420;2022-10-23T02:36:33;1.63;;;1.50;;
15708;SDS011;7954;51.914;8.420;2022-10-23T02:39:01;1.90;;;1.70;;
15708;SDS011;7954;51.914;8.420;2022-10-23T02:41:34;3.00;;;1.70;;
15708;SDS011;7954;51.914;8.420;2022-10-23T02:44:12;1.73;;;1.60;;
15708;SDS011;7954;51.914;8.420;2022-10-23T02:46:50;2.07;;;1.50;;
15708;SDS011;7954;51.914;8.420;2022-10-23T02:49:24;1.60;;;1.50;;
15708;SDS011;7954;51.914;8.420;2022-10-23T02:52:00;3.47;;;1.50;;
15708;SDS011;7954;51.914;8.420;2022-10-23T02:54:37;1.60;;;1.47;;
15708;SDS011;7954;51.914;8.420;2022-10-23T02:57:15;2.80;;;1.93;;
15708;SDS011;7954;51.914;8.420;2022-10-23T02:59:54;1.93;;;1.50;;
15708;SDS011;7954;51.914;8.420;2022-10-23T03:02:29;2.03;;;1.80;;
15708;SDS011;7954;51.914;8.420;2022-10-23T03:05:02;1.90;;;1.80;;
15708;SDS011;7954;51.914;8.420;2022-10-23T03:07:32;2.03;;;1.60;;
15708;SDS011;7954;51.914;8.420;2022-10-23T03:10:01;1.97;;;1.50;;
15708;SDS011;7954;51.914;8.420;2022-10-23T03:12:29;1.73;;;1.50;;
15708;SDS011;7954;51.914;8.420;2022-10-23T03:15:00;3.53;;;1.70;;
15708;SDS011;7954;51.914;8.420;2022-10-23T03:17:28;2.43;;;1.83;;
15708;SDS011;7954;51.914;8.420;2022-10-23T03:19:56;2.40;;;1.50;;
15708;SDS011;7954;51.914;8.420;2022-10-23T03:22:25;3.30;;;1.80;;
15708;SDS011;7954;51.914;8.420;2022-10-23T03:24:53;2.83;;;1.67;;
15708;SDS011;7954;51.914;8.420;2022-10-23T03:27:21;1.97;;;1.47;;
15708;SDS011;7954;51.914;8.420;2022-10-23T03:29:49;1.57;;;1.47;;
15708;SDS011;7954;51.914;8.420;2022-10-23T03:32:19;1.80;;;1.50;;
15708;SDS011;7954;51.914;8.420;2022-10-23T03:34:46;2.47;;;1.47;;
15708;SDS011;7954;51.914;8.420;2022-10-23T03:37:15;2.37;;;1.53;;
15708;SDS011;7954;51.914;8.420;2022-10-23T03:39:43;1.60;;;1.50;;
15708;SDS011;7954;51.914;8.420;2022-10-23T03:42:11;2.73;;;1.70;;
15708;SDS011;7954;51.914;8.420;2022-10-23T03:44:39;2.10;;;1.50;;
15708;SDS011;7954;51.914;8.420;2022-10-23T03:47:07;2.40;;;1.50;;
15708;SDS011;7954;51.914;8.420;2022-10-23T03:49:41;2.70;;;1.67;;
15708;SDS011;7954;51.914;8.420;2022-10-23T03:52:13;1.53;;;1.40;;
15708;SDS011;7954;51.914;8.420;2022-10-23T03:54:41;1.63;;;1.27;;
15708;SDS011;7954;51.914;8.420;2022-10-23T03:57:09;3.53;;;2.10;;
15708;SDS011;7954;51.914;8.420;2022-10-23T03:59:37;1.77;;;1.67;;
15708;SDS011;7954;51.914;8.420;2022-10-23T04:02:05;1.90;;;1.30;;
15708;SDS011;7954;51.914;8.420;2022-10-23T04:04:33;1.77;;;1.60;;
15708;SDS011;7954;51.914;8.420;2022-10-23T04:07:03;2.57;;;1.30;;
15708;SDS011;7954;51.914;8.420;2022-10-23T04:09:31;1.30;;;1.20;;
15708;SDS011;7954;51.914;8.420;2022-10-23T04:12:01;2.60;;;1.70;;
15708;SDS011;7954;51.914;8.420;2022-10-23T04:14:29;1.30;;;1.20;;
15708;SDS011;7954;51.914;8.420;2022-10-23T04:16:58;2.33;;;1.30;;
15708;SDS011;7954;51.914;8.420;2022-10-23T04:19:26;2.83;;;1.50;;
15708;SDS011;7954;51.914;8.420;2022-10-23T04:21:54;1.60;;;1.40;;
15708;SDS011;7954;51.914;8.420;2022-10-23T04:24:24;1.70;;;1.23;;
15708;SDS011;7954;51.914;8.420;2022-10-23T04:26:52;1.60;;;1.30;;
15708;SDS011;7954;51.914;8.420;2022-10-23T04:29:20;1.40;;;1.20;;
15708;SDS011;7954;51.914;8.420;2022-10-23T04:31:49;2.67;;;1.50;;
15708;SDS011;7954;51.914;8.420;2022-10-23T04:34:18;1.53;;;1.27;;
15708;SDS011;7954;51.914;8.420;2022-10-23T04:36:45;1.40;;;1.30;;
15708;SDS011;7954;51.914;8.420;2022-10-23T04:39:13;3.07;;;1.40;;
15708;SDS011;7954;51.914;8.420;2022-10-23T04:41:43;2.23;;;1.40;;
15708;SDS011;7954;51.914;8.420;2022-10-23T04:44:11;2.83;;;1.60;;
15708;SDS011;7954;51.914;8.420;2022-10-23T04:46:39;1.50;;;1.27;;
15708;SDS011;7954;51.914;8.420;2022-10-23T04:49:07;2.07;;;1.47;;
15708;SDS011;7954;51.914;8.420;2022-10-23T04:51:35;3.03;;;1.50;;
15708;SDS011;7954;51.914;8.420;2022-10-23T04:54:04;2.57;;;1.60;;
15708;SDS011;7954;51.914;8.420;2022-10-23T04:56:36;1.90;;;1.27;;
15708;SDS011;7954;51.914;8.420;2022-10-23T04:59:06;1.77;;;1.33;;
15708;SDS011;7954;51.914;8.420;2022-10-23T05:01:35;2.37;;;1.57;;
15708;SDS011;7954;51.914;8.420;2022-10-23T05:04:03;1.40;;;1.30;;
15708;SDS011;7954;51.914;8.420;2022-10-23T05:06:31;1.73;;;1.63;;
15708;SDS011;7954;51.914;8.420;2022-10-23T05:09:00;1.60;;;1.37;;
15708;SDS011;7954;51.914;8.420;2022-10-23T05:11:28;1.73;;;1.30;;
15708;SDS011;7954;51.914;8.420;2022-10-23T05:13:55;1.53;;;1.43;;
15708;SDS011;7954;51.914;8.420;2022-10-23T05:16:27;2.00;;;1.70;;
15708;SDS011;7954;51.914;8.420;2022-10-23T05:19:03;3.23;;;1.27;;
15708;SDS011;7954;51.914;8.420;2022-10-23T05:21:33;2.77;;;1.87;;
15708;SDS011;7954;51.914;8.420;2022-10-23T05:24:02;1.83;;;1.37;;
15708;SDS011;7954;51.914;8.420;2022-10-23T05:26:30;1.47;;;1.23;;
15708;SDS011;7954;51.914;8.420;2022-10-23T05:28:58;2.10;;;1.30;;
15708;SDS011;7954;51.914;8.420;2022-10-23T05:31:28;1.40;;;1.30;;
15708;SDS011;7954;51.914;8.420;2022-10-23T05:33:56;2.50;;;1.50;;
15708;SDS011;7954;51.914;8.420;2022-10-23T05:36:24;2.97;;;1.70;;
15708;SDS011;7954;51.914;8.420;2022-10-23T05:38:52;1.80;;;1.60;;
15708;SDS011;7954;51.914;8.420;2022-10-23T05:41:21;2.50;;;1.70;;
15708;SDS011;7954;51.914;8.420;2022-10-23T05:43:49;1.50;;;1.30;;
15708;SDS011;7954;51.914;8.420;2022-10-23T05:46:19;1.77;;;1.37;;
15708;SDS011;7954;51.914;8.420;2022-10-23T05:48:50;1.53;;;1.40;;
15708;SDS011;7954;51.914;8.420;2022-10-23T05:51:19;2.17;;;1.60;;
15708;SDS011;7954;51.914;8.420;2022-10-23T05:53:48;3.33;;;1.60;;
15708;SDS011;7954;51.914;8.420;2022-10-23T05:56:17;1.57;;;1.40;;
15708;SDS011;7954;51.914;8.420;2022-10-23T05:58:45;2.40;;;1.47;;
15708;SDS011;7954;51.914;8.420;2022-10-23T06:01:13;2.27;;;1.50;;
15708;SDS011;7954;51.914;8.420;2022-10-23T06:03:43;3.37;;;1.70;;
15708;SDS011;7954;51.914;8.420;2022-10-23T06:06:13;2.30;;;1.50;;
15708;SDS011;7954;51.914;8.420;2022-10-23T06:08:41;1.63;;;1.53;;
15708;SDS011;7954;51.914;8.420;2022-10-23T06:11:10;2.57;;;1.40;;
15708;SDS011;7954;51.914;8.420;2022-10-23T06:13:41;3.40;;;1.50;;
15708;SDS011;7954;51.914;8.420;2022-10-23T06:16:12;1.70;;;1.57;;
15708;SDS011;7954;51.914;8.420;2022-10-23T06:18:42;1.83;;;1.50;;
15708;SDS011;7954;51.914;8.420;2022-10-23T06:21:13;2.30;;;1.57;;
15708;SDS011;7954;51.914;8.420;2022-10-23T06:23:42;2.00;;;1.40;;
15708;SDS011;7954;51.914;8.420;2022-10-23T06:26:11;7.63;;;1.90;;
15708;SDS011;7954;51.914;8.420;2022-10-23T06:28:42;2.00;;;1.57;;
15708;SDS011;7954;51.914;8.420;2022-10-23T06:31:11;2.03;;;1.50;;
15708;SDS011;7954;51.914;8.420;2022-10-23T06:33:40;1.73;;;1.50;;
15708;SDS011;7954;51.914;8.420;2022-10-23T06:36:09;1.93;;;1.83;;
15708;SDS011;7954;51.914;8.420;2022-10-23T06:38:39;3.70;;;2.30;;
15708;SDS011;7954;51.914;8.420;2022-10-23T06:41:10;2.80;;;2.07;;
15708;SDS011;7954;51.914;8.420;2022-10-23T06:43:40;2.70;;;1.70;;
15708;SDS011;7954;51.914;8.420;2022-10-23T06:46:08;2.40;;;1.73;;
15708;SDS011;7954;51.914;8.420;2022-10-23T06:48:36;2.10;;;1.90;;
15708;SDS011;7954;51.914;8.420;2022-10-23T06:51:05;2.90;;;1.70;;
15708;SDS011;7954;51.914;8.420;2022-10-23T06:53:34;1.70;;;1.60;;
15708;SDS011;7954;51.914;8.420;2022-10-23T06:56:05;2.63;;;1.57;;
15708;SDS011;7954;51.914;8.420;2022-10-23T06:58:35;2.40;;;1.80;;
15708;SDS011;7954;51.914;8.420;2022-10-23T07:01:05;1.77;;;1.67;;
15708;SDS011;7954;51.914;8.420;2022-10-23T07:03:34;2.27;;;1.93;;
15708;SDS011;7954;51.914;8.420;2022-10-23T07:06:03;1.73;;;1.63;;
15708;SDS011;7954;51.914;8.420;2022-10-23T07:08:32;1.73;;;1.47;;
15708;SDS011;7954;51.914;8.420;2022-10-23T07:11:01;3.03;;;1.90;;
15708;SDS011;7954;51.914;8.420;2022-10-23T07:13:31;1.77;;;1.67;;
15708;SDS011;7954;51.914;8.420;2022-10-23T07:16:07;4.37;;;2.13;;
15708;SDS011;7954;51.914;8.420;2022-10-23T07:18:38;6.10;;;2.20;;
15708;SDS011;7954;51.914;8.420;2022-10-23T07:21:06;2.83;;;2.00;;
15708;SDS011;7954;51.914;8.420;2022-10-23T07:23:34;2.37;;;1.80;;
15708;SDS011;7954;51.914;8.420;2022-10-23T07:26:03;2.07;;;1.80;;
15708;SDS011;7954;51.914;8.420;2022-10-23T07:28:35;3.17;;;2.23;;
15708;SDS011;7954;51.914;8.420;2022-10-23T07:31:04;3.13;;;1.87;;
15708;SDS011;7954;51.914;8.420;2022-10-23T07:33:32;2.53;;;1.67;;
15708;SDS011;7954;51.914;8.420;2022-10-23T07:36:02;2.10;;;1.90;;
15708;SDS011;7954;51.914;8.420;2022-10-23T07:38:30;2.33;;;1.70;;
15708;SDS011;7954;51.914;8.420;2022-10-23T07:40:58;2.27;;;1.70;;
15708;SDS011;7954;51.914;8.420;2022-10-23T07:43:26;2.20;;;2.00;;
15708;SDS011;7954;51.914;8.420;2022-10-23T07:45:56;2.77;;;2.03;;
15708;SDS011;7954;51.914;8.420;2022-10-23T07:48:24;3.17;;;2.10;;
15708;SDS011;7954;51.914;8.420;2022-10-23T07:50:56;2.87;;;2.03;;
15708;SDS011;7954;51.914;8.420;2022-10-23T07:53:27;2.43;;;2.00;;
15708;SDS011;7954;51.914;8.420;2022-10-23T07:55:56;3.47;;;1.90;;
15708;SDS011;7954;51.914;8.420;2022-10-23T07:58:26;2.30;;;1.80;;
15708;SDS011;7954;51.914;8.420;2022-10-23T08:00:57;2.60;;;1.90;;
15708;SDS011;7954;51.914;8.420;2022-10-23T08:03:28;2.73;;;2.00;;
15708;SDS011;7954;51.914;8.420;2022-10-23T08:05:58;2.27;;;1.80;;
15708;SDS011;7954;51.914;8.420;2022-10-23T08:08:28;2.37;;;1.90;;
15708;SDS011;7954;51.914;8.420;2022-10-23T08:10:57;2.33;;;1.80;;
15708;SDS011;7954;51.914;8.420;2022-10-23T08:13:25;3.00;;;2.20;;
15708;SDS011;7954;51.914;8.420;2022-10-23T08:15:53;3.20;;;2.27;;
15708;SDS011;7954;51.914;8.420;2022-10-23T08:18:23;2.90;;;2.43;;
15708;SDS011;7954;51.914;8.420;2022-10-23T08:20:52;2.90;;;2.20;;
15708;SDS011;7954;51.914;8.420;2022-10-23T08:23:20;2.93;;;2.00;;
15708;SDS011;7954;51.914;8.420;2022-10-23T08:25:48;3.23;;;2.30;;
15708;SDS011;7954;51.914;8.420;2022-10-23T08:28:16;5.60;;;2.37;;
15708;SDS011;7954;51.914;8.420;2022-10-23T08:30:44;3.10;;;2.13;;
15708;SDS011;7954;51.914;8.420;2022-10-23T08:33:12;3.93;;;2.00;;
15708;SDS011;7954;51.914;8.420;2022-10-23T08:35:41;2.80;;;2.10;;
15708;SDS011;7954;51.914;8.420;2022-10-23T08:38:09;2.53;;;1.97;;
15708;SDS011;7954;51.914;8.420;2022-10-23T08:40:37;3.13;;;1.97;;
15708;SDS011;7954;51.914;8.420;2022-10-23T08:43:13;2.30;;;1.90;;
15708;SDS011;7954;51.914;8.420;2022-10-23T08:45:47;2.10;;;1.73;;
15708;SDS011;7954;51.914;8.420;2022-10-23T08:48:18;2.43;;;1.70;;
15708;SDS011;7954;51.914;8.420;2022-10-23T08:50:51;5.10;;;1.80;;
15708;SDS011;7954;51.914;8.420;2022-10-23T08:53:24;2.50;;;2.00;;
15708;SDS011;7954;51.914;8.420;2022-10-23T08:55:56;2.60;;;1.80;;
15708;SDS011;7954;51.914;8.420;2022-10-23T08:58:31;1.87;;;1.63;;
15708;SDS011;7954;51.914;8.420;2022-10-23T09:01:09;3.77;;;2.60;;
15708;SDS011;7954;51.914;8.420;2022-10-23T09:03:50;1.77;;;1.60;;
15708;SDS011;7954;51.914;8.420;2022-10-23T09:06:22;2.67;;;1.70;;
15708;SDS011;7954;51.914;8.420;2022-10-23T09:08:58;1.77;;;1.53;;
15708;SDS011;7954;51.914;8.420;2022-10-23T09:11:40;2.63;;;2.03;;
15708;SDS011;7954;51.914;8.420;2022-10-23T09:14:24;2.03;;;1.70;;
15708;SDS011;7954;51.914;8.420;2022-10-23T09:17:15;1.60;;;1.50;;
15708;SDS011;7954;51.914;8.420;2022-10-23T09:19:52;5.47;;;2.00;;
15708;SDS011;7954;51.914;8.420;2022-10-23T09:22:27;1.77;;;1.40;;
15708;SDS011;7954;51.914;8.420;2022-10-23T09:24:55;2.33;;;1.60;;
15708;SDS011;7954;51.914;8.420;2022-10-23T09:27:24;1.33;;;1.23;;
15708;SDS011;7954;51.914;8.420;2022-10-23T09:29:53;1.77;;;1.50;;
15708;SDS011;7954;51.914;8.420;2022-10-23T09:32:33;1.40;;;1.20;;
15708;SDS011;7954;51.914;8.420;2022-10-23T09:35:02;2.07;;;1.43;;
15708;SDS011;7954;51.914;8.420;2022-10-23T09:37:33;2.20;;;1.10;;
15708;SDS011;7954;51.914;8.420;2022-10-23T09:40:14;3.57;;;1.60;;
15708;SDS011;7954;51.914;8.420;2022-10-23T09:42:49;1.57;;;1.40;;
15708;SDS011;7954;51.914;8.420;2022-10-23T09:45:22;2.20;;;1.37;;
15708;SDS011;7954;51.914;8.420;2022-10-23T09:48:03;3.37;;;1.30;;
15708;SDS011;7954;51.914;8.420;2022-10-23T09:50:32;1.40;;;1.27;;
15708;SDS011;7954;51.914;8.420;2022-10-23T09:53:01;1.80;;;1.40;;
15708;SDS011;7954;51.914;8.420;2022-10-23T09:55:30;2.10;;;1.20;;
15708;SDS011;7954;51.914;8.420;2022-10-23T09:57:58;2.47;;;1.50;;
15708;SDS011;7954;51.914;8.420;2022-10-23T10:00:26;3.87;;;1.50;;
15708;SDS011;7954;51.914;8.420;2022-10-23T10:02:55;2.10;;;1.50;;
15708;SDS011;7954;51.914;8.420;2022-10-23T10:05:27;2.60;;;1.43;;
15708;SDS011;7954;51.914;8.420;2022-10-23T10:07:59;1.53;;;1.40;;
15708;SDS011;7954;51.914;8.420;2022-10-23T10:10:34;2.00;;;1.40;;
15708;SDS011;7954;51.914;8.420;2022-10-23T10:13:06;2.50;;;1.73;;
15708;SDS011;7954;51.914;8.420;2022-10-23T10:15:51;1.60;;;1.33;;
15708;SDS011;7954;51.914;8.420;2022-10-23T10:18:25;3.07;;;1.60;;
15708;SDS011;7954;51.914;8.420;2022-10-23T10:21:04;1.77;;;1.50;;
15708;SDS011;7954;51.914;8.420;2022-10-23T10:23:44;1.80;;;1.20;;
15708;SDS011;7954;51.914;8.420;2022-10-23T10:26:19;1.40;;;1.30;;
15708;SDS011;7954;51.914;8.420;2022-10-23T10:28:59;1.70;;;1.20;;
15708;SDS011;7954;51.914;8.420;2022-10-23T10:31:41;2.07;;;1.20;;
15708;SDS011;7954;51.914;8.420;2022-10-23T10:34:22;1.50;;;1.30;;
15708;SDS011;7954;51.914;8.420;2022-10-23T10:36:56;3.57;;;1.73;;
15708;SDS011;7954;51.914;8.420;2022-10-23T10:39:39;1.50;;;1.30;;
15708;SDS011;7954;51.914;8.420;2022-10-23T10:42:28;1.33;;;1.23;;
15708;SDS011;7954;51.914;8.420;2022-10-23T10:45:07;2.77;;;1.40;;
15708;SDS011;7954;51.914;8.420;2022-10-23T10:47:47;2.67;;;1.20;;
15708;SDS011;7954;51.914;8.420;2022-10-23T10:50:27;3.37;;;1.80;;
15708;SDS011;7954;51.914;8.420;2022-10-23T10:53:00;1.50;;;1.20;;
15708;SDS011;7954;51.914;8.420;2022-10-23T10:55:37;2.43;;;1.40;;
15708;SDS011;7954;51.914;8.420;2022-10-23T10:58:09;1.77;;;1.00;;
15708;SDS011;7954;51.914;8.420;2022-10-23T11:00:45;1.83;;;1.33;;
15708;SDS011;7954;51.914;8.420;2022-10-23T11:03:21;1.40;;;1.20;;
15708;SDS011;7954;51.914;8.420;2022-10-23T11:06:04;3.37;;;1.30;;
15708;SDS011;7954;51.914;8.420;2022-10-23T11:08:39;1.23;;;1.10;;
15708;SDS011;7954;51.914;8.420;2022-10-23T11:11:27;2.13;;;1.33;;
15708;SDS011;7954;51.914;8.420;2022-10-23T11:13:58;1.77;;;1.37;;
15708;SDS011;7954;51.914;8.420;2022-10-23T11:16:27;1.30;;;1.20;;
15708;SDS011;7954;51.914;8.420;2022-10-23T11:19:00;1.40;;;1.27;;
15708;SDS011;7954;51.914;8.420;2022-10-23T11:21:39;1.30;;;1.20;;
15708;SDS011;7954;51.914;8.420;2022-10-23T11:24:19;1.20;;;1.10;;
15708;SDS011;7954;51.914;8.420;2022-10-23T11:27:28;3.37;;;1.40;;
15708;SDS011;7954;51.914;8.420;2022-10-23T11:30:11;1.33;;;1.00;;
15708;SDS011;7954;51.914;8.420;2022-10-23T11:32:50;1.03;;;1.00;;
15708;SDS011;7954;51.914;8.420;2022-10-23T11:35:35;2.97;;;1.37;;
15708;SDS011;7954;51.914;8.420;2022-10-23T11:38:13;1.77;;;1.20;;
15708;SDS011;7954;51.914;8.420;2022-10-23T11:40:45;1.77;;;1.20;;
15708;SDS011;7954;51.914;8.420;2022-10-23T11:43:26;1.57;;;1.30;;
15708;SDS011;7954;51.914;8.420;2022-10-23T11:45:54;2.43;;;1.20;;
15708;SDS011;7954;51.914;8.420;2022-10-23T11:48:34;1.57;;;1.20;;
15708;SDS011;7954;51.914;8.420;2022-10-23T11:51:03;1.43;;;1.20;;
15708;SDS011;7954;51.914;8.420;2022-10-23T11:53:41;1.43;;;1.13;;
15708;SDS011;7954;51.914;8.420;2022-10-23T11:56:23;2.20;;;1.43;;
15708;SDS011;7954;51.914;8.420;2022-10-23T11:58:54;1.50;;;1.40;;
15708;SDS011;7954;51.914;8.420;2022-10-23T12:01:28;2.13;;;1.23;;
15708;SDS011;7954;51.914;8.420;2022-10-23T12:04:01;2.50;;;1.20;;
15708;SDS011;7954;51.914;8.420;2022-10-23T12:06:36;3.50;;;1.20;;
15708;SDS011;7954;51.914;8.420;2022-10-23T12:09:07;1.07;;;1.00;;
15708;SDS011;7954;51.914;8.420;2022-10-23T12:11:48;4.30;;;1.30;;
15708;SDS011;7954;51.914;8.420;2022-10-23T12:14:31;2.63;;;1.17;;
15708;SDS011;7954;51.914;8.420;2022-10-23T12:17:01;2.07;;;1.33;;
15708;SDS011;7954;51.914;8.420;2022-10-23T12:19:46;1.87;;;1.30;;
15708;SDS011;7954;51.914;8.420;2022-10-23T12:22:15;1.27;;;1.00;;
15708;SDS011;7954;51.914;8.420;2022-10-23T12:24:56;2.63;;;1.60;;
15708;SDS011;7954;51.914;8.420;2022-10-23T12:27:31;1.70;;;1.50;;
15708;SDS011;7954;51.914;8.420;2022-10-23T12:33:01;3.40;;;1.20;;
15708;SDS011;7954;51.914;8.420;2022-10-23T12:38:46;1.50;;;1.20;;
15708;SDS011;7954;51.914;8.420;2022-10-23T12:41:15;1.40;;;1.00;;
15708;SDS011;7954;51.914;8.420;2022-10-23T12:43:49;1.43;;;1.27;;
15708;SDS011;7954;51.914;8.420;2022-10-23T12:46:31;0.90;;;0.90;;
15708;SDS011;7954;51.914;8.420;2022-10-23T12:49:02;1.70;;;1.60;;
15708;SDS011;7954;51.914;8.420;2022-10-23T12:51:38;2.20;;;1.27;;
15708;SDS011;7954;51.914;8.420;2022-10-23T12:54:12;2.63;;;1.87;;
15708;SDS011;7954;51.914;8.420;2022-10-23T12:56:41;1.13;;;1.03;;
15708;SDS011;7954;51.914;8.420;2022-10-23T12:59:12;6.63;;;1.40;;
15708;SDS011;7954;51.914;8.420;2022-10-23T13:01:44;2.20;;;1.20;;
15708;SDS011;7954;51.914;8.420;2022-10-23T13:04:20;2.77;;;1.57;;
15708;SDS011;7954;51.914;8.420;2022-10-23T13:06:52;2.07;;;1.30;;
15708;SDS011;7954;51.914;8.420;2022-10-23T13:09:23;1.60;;;1.50;;
15708;SDS011;7954;51.914;8.420;2022-10-23T13:11:56;2.20;;;1.00;;
15708;SDS011;7954;51.914;8.420;2022-10-23T13:14:29;2.47;;;1.30;;
15708;SDS011;7954;51.914;8.420;2022-10-23T13:17:02;1.17;;;1.07;;
15708;SDS011;7954;51.914;8.420;2022-10-23T13:19:31;1.37;;;1.27;;
15708;SDS011;7954;51.914;8.420;2022-10-23T13:22:00;3.60;;;1.50;;
15708;SDS011;7954;51.914;8.420;2022-10-23T13:24:30;2.37;;;1.40;;
15708;SDS011;7954;51.914;8.420;2022-10-23T13:26:58;2.50;;;1.20;;
15708;SDS011;7954;51.914;8.420;2022-10-23T13:29:28;4.00;;;1.20;;
15708;SDS011;7954;51.914;8.420;2022-10-23T13:32:09;1.80;;;1.03;;
15708;SDS011;7954;51.914;8.420;2022-10-23T13:34:37;1.10;;;1.00;;
15708;SDS011;7954;51.914;8.420;2022-10-23T13:37:20;2.37;;;0.97;;
15708;SDS011;7954;51.914;8.420;2022-10-23T13:40:00;1.40;;;1.30;;
15708;SDS011;7954;51.914;8.420;2022-10-23T13:42:29;1.97;;;1.00;;
15708;SDS011;7954;51.914;8.420;2022-10-23T13:44:56;1.77;;;1.20;;
15708;SDS011;7954;51.914;8.420;2022-10-23T13:47:26;1.83;;;1.20;;
15708;SDS011;7954;51.914;8.420;2022-10-23T13:49:54;1.60;;;1.10;;
15708;SDS011;7954;51.914;8.420;2022-10-23T13:52:22;1.00;;;1.00;;
15708;SDS011;7954;51.914;8.420;2022-10-23T13:54:51;1.17;;;1.07;;
15708;SDS011;7954;51.914;8.420;2022-10-23T13:57:21;1.20;;;1.10;;
15708;SDS011;7954;51.914;8.420;2022-10-23T13:59:49;1.77;;;0.87;;
15708;SDS011;7954;51.914;8.420;2022-10-23T14:02:19;1.30;;;1.10;;
15708;SDS011;7954;51.914;8.420;2022-10-23T14:04:49;1.43;;;1.07;;
15708;SDS011;7954;51.914;8.420;2022-10-23T14:07:17;1.20;;;1.10;;
15708;SDS011;7954;51.914;8.420;2022-10-23T14:09:45;1.77;;;0.90;;
15708;SDS011;7954;51.914;8.420;2022-10-23T14:12:16;1.70;;;1.30;;
15708;SDS011;7954;51.914;8.420;2022-10-23T14:14:44;3.30;;;1.20;;
15708;SDS011;7954;51.914;8.420;2022-10-23T14:17:17;1.20;;;1.10;;
15708;SDS011;7954;51.914;8.420;2022-10-23T14:19:45;1.57;;;1.20;;
15708;SDS011;7954;51.914;8.420;2022-10-23T14:22:14;0.97;;;0.97;;
15708;SDS011;7954;51.914;8.420;2022-10-23T14:24:43;1.27;;;1.10;;
15708;SDS011;7954;51.914;8.420;2022-10-23T14:27:11;1.70;;;0.93;;
15708;SDS011;7954;51.914;8.420;2022-10-23T14:29:39;1.77;;;1.00;;
15708;SDS011;7954;51.914;8.420;2022-10-23T14:32:07;1.70;;;1.10;;
15708;SDS011;7954;51.914;8.420;2022-10-23T14:34:36;2.33;;;1.43;;
15708;SDS011;7954;51.914;8.420;2022-10-23T14:37:06;1.57;;;1.30;;
15708;SDS011;7954;51.914;8.420;2022-10-23T14:39:36;1.93;;;0.90;;
15708;SDS011;7954;51.914;8.420;2022-10-23T14:42:04;1.20;;;1.10;;
15708;SDS011;7954;51.914;8.420;2022-10-23T14:44:32;7.30;;;1.30;;
15708;SDS011;7954;51.914;8.420;2022-10-23T14:47:00;1.60;;;0.90;;
15708;SDS011;7954;51.914;8.420;2022-10-23T14:49:28;1.70;;;1.30;;
15708;SDS011;7954;51.914;8.420;2022-10-23T14:51:57;2.50;;;1.13;;
15708;SDS011;7954;51.914;8.420;2022-10-23T14:54:25;3.47;;;1.50;;
15708;SDS011;7954;51.914;8.420;2022-10-23T14:56:56;2.60;;;1.27;;
15708;SDS011;7954;51.914;8.420;2022-10-23T14:59:23;1.90;;;1.00;;
15708;SDS011;7954;51.914;8.420;2022-10-23T15:01:51;1.17;;;1.00;;
15708;SDS011;7954;51.914;8.420;2022-10-23T15:04:19;1.37;;;1.20;;
15708;SDS011;7954;51.914;8.420;2022-10-23T15:06:48;1.40;;;1.10;;
15708;SDS011;7954;51.914;8.420;2022-10-23T15:09:16;2.03;;;1.50;;
15708;SDS011;7954;51.914;8.420;2022-10-23T15:11:45;1.30;;;1.20;;
15708;SDS011;7954;51.914;8.420;2022-10-23T15:14:15;1.90;;;1.40;;
15708;SDS011;7954;51.914;8.420;2022-10-23T15:16:43;2.20;;;1.47;;
15708;SDS011;7954;51.914;8.420;2022-10-23T15:19:12;1.50;;;1.37;;
15708;SDS011;7954;51.914;8.420;2022-10-23T15:21:44;1.30;;;1.20;;
15708;SDS011;7954;51.914;8.420;2022-10-23T15:24:12;1.90;;;1.70;;
15708;SDS011;7954;51.914;8.420;2022-10-23T15:26:40;2.73;;;1.30;;
15708;SDS011;7954;51.914;8.420;2022-10-23T15:29:10;5.53;;;2.27;;
15708;SDS011;7954;51.914;8.420;2022-10-23T15:31:45;1.87;;;1.40;;
15708;SDS011;7954;51.914;8.420;2022-10-23T15:34:16;2.00;;;1.57;;